Time;durP1;ratioP1;P1;durP2;ratioP2;P2;SDS_P1;SDS_P2;PMS_P1;PMS_P2;Temp;Humidity;BMP_temperature;BMP_pressure;BME280_temperature;BME280_humidity;BME280_pressure;Samples;Min_cycle;Max_cycle;Signal;HPM_P1;HPM_P2
2022/02/16 00:00:01;;;;;;;2.67;0.98;;;;;;;;;;5041190;28;20198;-89
2022/02/16 00:02:45;;;;;;;1.63;1.00;;;;;;;;;;5047070;28;21133;-88
2022/02/16 00:05:20;;;;;;;1.20;1.00;;;;;;;;;;5052282;28;20585;-90
2022/02/16 00:08:02;;;;;;;;;;;;;;;;;;;;;
2022/02/16 00:11:20;;;;;;;1.10;1.00;;;;;;;;;;5036394;28;20222;-88
2022/02/16 00:14:09;;;;;;;1.40;1.00;;;;;;;;;;5044407;28;20655;-89
2022/02/16 00:16:49;;;;;;;1.73;1.38;;;;;;;;;;5010915;28;20283;-90
2022/02/16 00:22:22;;;;;;;2.42;1.20;;;;;;;;;;4996055;28;20252;-91
2022/02/16 00:24:56;;;;;;;1.15;1.05;;;;;;;;;;5041559;28;20195;-89
2022/02/16 00:27:23;;;;;;;1.10;1.00;;;;;;;;;;5034847;28;20195;-86
2022/02/16 00:29:50;;;;;;;1.15;1.00;;;;;;;;;;5049470;28;20198;-88
2022/02/16 00:32:19;;;;;;;1.25;1.02;;;;;;;;;;5050108;28;20206;-89
2022/02/16 00:34:46;;;;;;;1.25;1.02;;;;;;;;;;5045294;28;20617;-88
2022/02/16 00:37:13;;;;;;;1.00;0.90;;;;;;;;;;5053887;28;20210;-87
2022/02/16 00:39:41;;;;;;;1.67;1.00;;;;;;;;;;5045183;28;20198;-89
2022/02/16 00:42:08;;;;;;;1.10;1.00;;;;;;;;;;5053571;28;20709;-86
2022/02/16 00:44:35;;;;;;;1.30;0.90;;;;;;;;;;5045098;28;20206;-83
2022/02/16 00:47:02;;;;;;;1.60;1.25;;;;;;;;;;5048899;28;20633;-86
2022/02/16 00:49:31;;;;;;;0.95;0.80;;;;;;;;;;5048211;28;20618;-85
2022/02/16 00:51:58;;;;;;;1.20;0.80;;;;;;;;;;5043969;28;20192;-85
2022/02/16 00:54:25;;;;;;;1.17;0.95;;;;;;;;;;5062130;28;20258;-85
2022/02/16 00:56:52;;;;;;;1.17;1.00;;;;;;;;;;5044776;28;20202;-84
2022/02/16 00:59:19;;;;;;;1.65;0.80;;;;;;;;;;5042826;28;20203;-85
2022/02/16 01:01:46;;;;;;;1.00;0.80;;;;;;;;;;5050913;28;20221;-85
2022/02/16 01:04:13;;;;;;;1.10;0.90;;;;;;;;;;5046871;28;20202;-84
2022/02/16 01:06:41;;;;;;;1.00;0.80;;;;;;;;;;5048908;28;20566;-85
2022/02/16 01:09:08;;;;;;;3.47;0.90;;;;;;;;;;5048236;28;20321;-85
2022/02/16 01:11:35;;;;;;;1.15;0.82;;;;;;;;;;5067083;28;20213;-85
2022/02/16 01:14:02;;;;;;;1.50;0.90;;;;;;;;;;5045096;28;20190;-85
2022/02/16 01:16:29;;;;;;;1.67;0.90;;;;;;;;;;5047763;28;20206;-85
2022/02/16 01:18:56;;;;;;;1.30;1.02;;;;;;;;;;5041485;28;20297;-85
2022/02/16 01:21:24;;;;;;;0.93;0.70;;;;;;;;;;5048696;28;20202;-85
2022/02/16 01:23:52;;;;;;;0.80;0.70;;;;;;;;;;5048261;28;20712;-85
2022/02/16 01:26:19;;;;;;;0.80;0.68;;;;;;;;;;5048187;28;20209;-84
2022/02/16 01:28:46;;;;;;;1.55;1.00;;;;;;;;;;5050842;28;20209;-85
2022/02/16 01:31:13;;;;;;;0.90;0.70;;;;;;;;;;5054407;28;20575;-84
2022/02/16 01:33:40;;;;;;;1.00;0.82;;;;;;;;;;5045040;28;20220;-84
2022/02/16 01:36:07;;;;;;;1.00;0.80;;;;;;;;;;5038091;28;20659;-84
2022/02/16 01:38:35;;;;;;;1.15;0.90;;;;;;;;;;5046208;28;20196;-84
2022/02/16 01:41:04;;;;;;;1.13;0.80;;;;;;;;;;5050538;28;20253;-82
2022/02/16 01:43:31;;;;;;;1.10;0.80;;;;;;;;;;5043953;28;20241;-81
2022/02/16 01:45:58;;;;;;;1.00;0.80;;;;;;;;;;5048234;28;20268;-82
2022/02/16 01:48:25;;;;;;;0.90;0.70;;;;;;;;;;5048589;28;20233;-83
2022/02/16 01:50:52;;;;;;;0.90;0.80;;;;;;;;;;5042527;28;20191;-83
2022/02/16 01:53:19;;;;;;;1.10;0.80;;;;;;;;;;5044804;28;20202;-84
2022/02/16 01:55:47;;;;;;;1.15;0.80;;;;;;;;;;5040584;28;20210;-82
2022/02/16 01:58:16;;;;;;;0.90;0.73;;;;;;;;;;5037279;28;20199;-83
2022/02/16 02:00:43;;;;;;;1.25;0.80;;;;;;;;;;5041726;28;20290;-83
2022/02/16 02:03:10;;;;;;;0.90;0.70;;;;;;;;;;5046104;28;20211;-83
2022/02/16 02:05:37;;;;;;;1.33;0.82;;;;;;;;;;5045074;28;20199;-83
2022/02/16 02:08:05;;;;;;;1.70;0.68;;;;;;;;;;5046627;28;20199;-83
2022/02/16 02:10:32;;;;;;;0.90;0.80;;;;;;;;;;5050201;28;20198;-84
2022/02/16 02:12:59;;;;;;;1.52;0.90;;;;;;;;;;5045808;28;20571;-83
2022/02/16 02:15:28;;;;;;;0.90;0.70;;;;;;;;;;5045382;28;20619;-84
2022/02/16 02:17:55;;;;;;;1.10;0.80;;;;;;;;;;5041976;28;20651;-84
2022/02/16 02:20:24;;;;;;;0.90;0.80;;;;;;;;;;5047414;28;20211;-84
2022/02/16 02:22:52;;;;;;;1.17;1.00;;;;;;;;;;5045954;28;20245;-84
2022/02/16 02:25:19;;;;;;;2.60;1.00;;;;;;;;;;5049785;28;20206;-85
2022/02/16 02:27:46;;;;;;;2.05;1.10;;;;;;;;;;5041686;28;20203;-84
2022/02/16 02:30:14;;;;;;;0.85;0.68;;;;;;;;;;5031540;28;20195;-84
2022/02/16 02:32:42;;;;;;;2.45;0.95;;;;;;;;;;5044764;28;20659;-85
2022/02/16 02:35:10;;;;;;;0.90;0.63;;;;;;;;;;5047431;28;20676;-84
2022/02/16 02:37:38;;;;;;;1.00;0.80;;;;;;;;;;5045045;28;20214;-84
2022/02/16 02:40:06;;;;;;;0.95;0.70;;;;;;;;;;5044658;28;20601;-85
2022/02/16 02:42:36;;;;;;;0.90;0.80;;;;;;;;;;5038712;28;20666;-84
2022/02/16 02:45:03;;;;;;;1.00;0.80;;;;;;;;;;5035721;28;20231;-85
2022/02/16 02:47:30;;;;;;;0.85;0.70;;;;;;;;;;5033516;28;20203;-84
2022/02/16 02:49:57;;;;;;;1.10;0.88;;;;;;;;;;5042614;28;20254;-86
2022/02/16 02:52:24;;;;;;;3.10;0.90;;;;;;;;;;5042514;28;20192;-85
2022/02/16 02:54:53;;;;;;;1.05;0.80;;;;;;;;;;5042649;28;20602;-85
2022/02/16 02:57:20;;;;;;;1.38;0.80;;;;;;;;;;5044339;28;20203;-84
2022/02/16 02:59:47;;;;;;;1.05;0.85;;;;;;;;;;5047021;28;20206;-85
2022/02/16 03:02:14;;;;;;;1.08;0.80;;;;;;;;;;5042208;28;20192;-85
2022/02/16 03:04:41;;;;;;;0.90;0.80;;;;;;;;;;5033483;28;20206;-85
2022/02/16 03:07:08;;;;;;;2.72;1.00;;;;;;;;;;5041428;28;20203;-85
2022/02/16 03:09:35;;;;;;;1.00;0.80;;;;;;;;;;5049375;28;20203;-85
2022/02/16 03:12:06;;;;;;;0.90;0.80;;;;;;;;;;5053306;28;20195;-84
2022/02/16 03:14:33;;;;;;;0.90;0.75;;;;;;;;;;5051495;28;20654;-84
2022/02/16 03:17:01;;;;;;;1.00;0.90;;;;;;;;;;5046105;28;20195;-85
2022/02/16 03:19:28;;;;;;;0.90;0.80;;;;;;;;;;5037425;28;20196;-85
2022/02/16 03:21:55;;;;;;;1.00;0.88;;;;;;;;;;5049002;28;20650;-85
2022/02/16 03:24:22;;;;;;;0.90;0.75;;;;;;;;;;5040413;28;20230;-85
2022/02/16 03:26:49;;;;;;;1.08;0.80;;;;;;;;;;5040990;28;20203;-83
2022/02/16 03:29:18;;;;;;;0.80;0.75;;;;;;;;;;5060238;28;20201;-84
2022/02/16 03:31:46;;;;;;;1.27;0.85;;;;;;;;;;5056588;28;20198;-84
2022/02/16 03:34:14;;;;;;;1.10;0.80;;;;;;;;;;5052815;28;20214;-84
2022/02/16 03:36:41;;;;;;;0.80;0.70;;;;;;;;;;5051286;28;20191;-84
2022/02/16 03:39:09;;;;;;;0.80;0.70;;;;;;;;;;5055627;28;20198;-85
2022/02/16 03:41:36;;;;;;;0.90;0.80;;;;;;;;;;5057125;28;20609;-85
2022/02/16 03:44:03;;;;;;;1.25;0.80;;;;;;;;;;5044085;28;20226;-85
2022/02/16 03:46:31;;;;;;;0.93;0.80;;;;;;;;;;5061822;28;20218;-84
2022/02/16 03:48:58;;;;;;;1.10;0.70;;;;;;;;;;5059149;28;20662;-84
2022/02/16 03:51:25;;;;;;;0.90;0.70;;;;;;;;;;5053939;28;20199;-84
2022/02/16 03:53:52;;;;;;;0.90;0.80;;;;;;;;;;5065901;28;20651;-84
2022/02/16 03:56:19;;;;;;;0.90;0.80;;;;;;;;;;5047522;28;20613;-83
2022/02/16 03:58:46;;;;;;;1.10;0.88;;;;;;;;;;5051173;28;20196;-83
2022/02/16 04:01:13;;;;;;;1.33;0.80;;;;;;;;;;5040078;28;20215;-85
2022/02/16 04:03:42;;;;;;;0.88;0.73;;;;;;;;;;5036814;28;20276;-85
2022/02/16 04:06:09;;;;;;;0.82;0.80;;;;;;;;;;5039561;28;20196;-85
2022/02/16 04:08:36;;;;;;;1.00;0.88;;;;;;;;;;5058622;28;20194;-86
2022/02/16 04:11:03;;;;;;;0.80;0.70;;;;;;;;;;5068250;28;20688;-86
2022/02/16 04:13:30;;;;;;;1.00;0.90;;;;;;;;;;5060542;28;20253;-85
2022/02/16 04:15:57;;;;;;;2.17;0.90;;;;;;;;;;5051826;28;20680;-87
2022/02/16 04:18:24;;;;;;;0.90;0.80;;;;;;;;;;5045286;28;20246;-86
2022/02/16 04:20:53;;;;;;;0.98;0.88;;;;;;;;;;5050405;28;20199;-85
2022/02/16 04:23:20;;;;;;;1.00;0.90;;;;;;;;;;5038633;28;20227;-86
2022/02/16 04:25:47;;;;;;;1.00;0.90;;;;;;;;;;5042947;28;20606;-86
2022/02/16 04:28:14;;;;;;;1.30;1.00;;;;;;;;;;5049101;28;20199;-86
2022/02/16 04:30:41;;;;;;;1.00;0.88;;;;;;;;;;5040065;28;20646;-85
2022/02/16 04:33:08;;;;;;;1.10;0.80;;;;;;;;;;5051419;28;20194;-85
2022/02/16 04:35:35;;;;;;;1.00;0.70;;;;;;;;;;5055926;28;20208;-86
2022/02/16 04:38:04;;;;;;;1.00;0.90;;;;;;;;;;5052931;28;20195;-86
2022/02/16 04:40:31;;;;;;;1.20;1.10;;;;;;;;;;5054739;28;20203;-86
2022/02/16 04:42:58;;;;;;;1.00;0.85;;;;;;;;;;5050740;28;20199;-86
2022/02/16 04:45:25;;;;;;;1.30;1.10;;;;;;;;;;5055269;28;20222;-87
2022/02/16 04:47:52;;;;;;;0.90;0.70;;;;;;;;;;5067856;28;20235;-86
2022/02/16 04:50:19;;;;;;;1.55;0.80;;;;;;;;;;5049651;28;20203;-85
2022/02/16 04:52:49;;;;;;;1.20;0.88;;;;;;;;;;5053068;28;20194;-87
2022/02/16 04:55:18;;;;;;;0.93;0.82;;;;;;;;;;5052885;28;20207;-87
2022/02/16 04:57:45;;;;;;;0.90;0.80;;;;;;;;;;5043780;28;20616;-85
2022/02/16 05:00:12;;;;;;;1.20;0.95;;;;;;;;;;5059044;28;20225;-85
2022/02/16 05:02:39;;;;;;;1.10;1.00;;;;;;;;;;5042739;28;20199;-85
2022/02/16 05:05:07;;;;;;;1.20;1.10;;;;;;;;;;5053359;28;20222;-85
2022/02/16 05:07:34;;;;;;;1.00;0.90;;;;;;;;;;5052155;28;20286;-85
2022/02/16 05:10:01;;;;;;;1.17;0.90;;;;;;;;;;5060937;28;20653;-85
2022/02/16 05:12:32;;;;;;;1.00;0.90;;;;;;;;;;5045478;28;20214;-86
2022/02/16 05:15:00;;;;;;;0.98;0.88;;;;;;;;;;5045647;28;20202;-87
2022/02/16 05:17:28;;;;;;;1.40;0.88;;;;;;;;;;5049440;28;20608;-86
2022/02/16 05:19:55;;;;;;;1.02;0.90;;;;;;;;;;5041442;28;20562;-87
2022/02/16 05:22:22;;;;;;;1.05;0.95;;;;;;;;;;5050407;28;20650;-86
2022/02/16 05:24:49;;;;;;;0.90;0.70;;;;;;;;;;5057070;28;20211;-86
2022/02/16 05:27:17;;;;;;;0.80;0.77;;;;;;;;;;5056580;28;20210;-87
2022/02/16 05:29:45;;;;;;;1.75;0.85;;;;;;;;;;5044904;28;20342;-86
2022/02/16 05:32:12;;;;;;;1.38;0.90;;;;;;;;;;5051462;28;20248;-85
2022/02/16 05:34:39;;;;;;;0.90;0.80;;;;;;;;;;5052964;28;20194;-86
2022/02/16 05:37:06;;;;;;;0.85;0.73;;;;;;;;;;5047782;28;20260;-85
2022/02/16 05:39:33;;;;;;;0.90;0.60;;;;;;;;;;5045849;28;20299;-85
2022/02/16 05:42:02;;;;;;;0.80;0.60;;;;;;;;;;5055144;28;20211;-84
2022/02/16 05:44:29;;;;;;;0.80;0.70;;;;;;;;;;5050155;28;20226;-84
2022/02/16 05:46:57;;;;;;;0.90;0.80;;;;;;;;;;5053276;28;20202;-86
2022/02/16 05:49:25;;;;;;;1.23;0.80;;;;;;;;;;5053473;28;20194;-85
2022/02/16 05:51:52;;;;;;;0.90;0.77;;;;;;;;;;5048104;28;20206;-86
2022/02/16 05:54:19;;;;;;;0.90;0.70;;;;;;;;;;5050276;28;20272;-84
2022/02/16 05:56:46;;;;;;;1.08;0.73;;;;;;;;;;5055639;28;20673;-84
2022/02/16 05:59:13;;;;;;;1.02;0.80;;;;;;;;;;5045210;28;20199;-83
2022/02/16 06:01:40;;;;;;;0.90;0.70;;;;;;;;;;5042820;28;20191;-84
2022/02/16 06:04:08;;;;;;;0.90;0.70;;;;;;;;;;5043118;28;20221;-84
2022/02/16 06:06:36;;;;;;;1.25;0.80;;;;;;;;;;5038298;28;20230;-84
2022/02/16 06:09:03;;;;;;;0.88;0.77;;;;;;;;;;5043430;28;20322;-86
2022/02/16 06:11:30;;;;;;;1.45;0.80;;;;;;;;;;5040431;28;20198;-85
2022/02/16 06:13:57;;;;;;;1.20;0.82;;;;;;;;;;5046396;28;20654;-85
2022/02/16 06:16:24;;;;;;;0.80;0.60;;;;;;;;;;5041991;28;20199;-86
2022/02/16 06:18:51;;;;;;;1.10;0.77;;;;;;;;;;5042397;28;20249;-85
2022/02/16 06:21:19;;;;;;;1.00;0.80;;;;;;;;;;5046275;28;20555;-86
2022/02/16 06:23:46;;;;;;;1.48;0.80;;;;;;;;;;5056692;28;20223;-87
2022/02/16 06:26:13;;;;;;;1.20;0.98;;;;;;;;;;5054628;28;20190;-85
2022/02/16 06:28:41;;;;;;;1.73;0.70;;;;;;;;;;5053119;28;20684;-86
2022/02/16 06:31:08;;;;;;;1.40;0.90;;;;;;;;;;5050937;28;20208;-85
2022/02/16 06:33:36;;;;;;;1.05;0.80;;;;;;;;;;5063158;28;20324;-85
2022/02/16 06:36:03;;;;;;;0.90;0.70;;;;;;;;;;5059275;28;20653;-86
2022/02/16 06:38:31;;;;;;;1.10;0.95;;;;;;;;;;5051130;28;20193;-86
2022/02/16 06:40:58;;;;;;;1.33;1.00;;;;;;;;;;5057523;28;20198;-85
2022/02/16 06:43:26;;;;;;;1.50;1.00;;;;;;;;;;5051522;28;20608;-85
2022/02/16 06:45:53;;;;;;;1.00;0.90;;;;;;;;;;5051879;28;20271;-85
2022/02/16 06:48:20;;;;;;;1.00;0.90;;;;;;;;;;5061463;28;20677;-86
2022/02/16 06:50:47;;;;;;;0.95;0.85;;;;;;;;;;5048351;28;20229;-84
2022/02/16 06:53:14;;;;;;;1.17;0.80;;;;;;;;;;5051783;28;20206;-85
2022/02/16 06:55:43;;;;;;;0.85;0.70;;;;;;;;;;5047106;28;20203;-86
2022/02/16 06:58:10;;;;;;;1.10;1.00;;;;;;;;;;5060252;28;20252;-85
2022/02/16 07:00:37;;;;;;;2.35;0.85;;;;;;;;;;5048742;28;20257;-86
2022/02/16 07:03:04;;;;;;;0.90;0.80;;;;;;;;;;5050643;28;20199;-85
2022/02/16 07:05:31;;;;;;;0.80;0.70;;;;;;;;;;5052917;28;20222;-85
2022/02/16 07:07:58;;;;;;;1.00;0.80;;;;;;;;;;5045041;28;20198;-85
2022/02/16 07:10:26;;;;;;;1.10;1.00;;;;;;;;;;5056013;28;20201;-85
2022/02/16 07:12:54;;;;;;;1.20;0.90;;;;;;;;;;5037391;28;20202;-85
2022/02/16 07:15:21;;;;;;;1.13;1.02;;;;;;;;;;5049900;28;20190;-85
2022/02/16 07:17:48;;;;;;;1.05;0.95;;;;;;;;;;5051530;28;20203;-84
2022/02/16 07:20:16;;;;;;;0.98;0.80;;;;;;;;;;5055537;28;20207;-84
2022/02/16 07:22:45;;;;;;;2.50;1.38;;;;;;;;;;5040486;28;20206;-84
2022/02/16 07:25:12;;;;;;;1.40;0.90;;;;;;;;;;5053850;28;20211;-84
2022/02/16 07:27:39;;;;;;;0.90;0.80;;;;;;;;;;5048546;28;20206;-84
2022/02/16 07:30:09;;;;;;;3.15;0.80;;;;;;;;;;5040044;28;20202;-85
2022/02/16 07:32:38;;;;;;;2.35;0.77;;;;;;;;;;5048251;28;20659;-84
2022/02/16 07:35:06;;;;;;;1.30;0.80;;;;;;;;;;5043684;28;20238;-84
2022/02/16 07:37:33;;;;;;;1.10;0.93;;;;;;;;;;5041401;28;20217;-84
2022/02/16 07:40:00;;;;;;;0.90;0.70;;;;;;;;;;5053655;28;20198;-84
2022/02/16 07:42:27;;;;;;;1.33;0.70;;;;;;;;;;5045312;28;20406;-84
2022/02/16 07:48:00;;;;;;;1.00;0.80;;;;;;;;;;5030459;28;20186;-85
2022/02/16 07:50:27;;;;;;;1.00;0.90;;;;;;;;;;5043644;28;21351;-83
2022/02/16 07:52:55;;;;;;;0.90;0.70;;;;;;;;;;5040405;28;20210;-84
2022/02/16 07:55:24;;;;;;;1.00;0.70;;;;;;;;;;5045108;28;20203;-84
2022/02/16 07:57:51;;;;;;;0.98;0.70;;;;;;;;;;5050036;28;20195;-83
2022/02/16 08:00:18;;;;;;;0.90;0.70;;;;;;;;;;5043525;28;20210;-83
2022/02/16 08:02:45;;;;;;;1.85;1.00;;;;;;;;;;5053600;28;20190;-83
2022/02/16 08:05:14;;;;;;;0.90;0.70;;;;;;;;;;5048532;28;20225;-84
2022/02/16 08:07:41;;;;;;;0.80;0.70;;;;;;;;;;5044436;28;20196;-83
2022/02/16 08:10:08;;;;;;;1.45;0.73;;;;;;;;;;5040763;28;20191;-81
2022/02/16 08:12:43;;;;;;;0.90;0.70;;;;;;;;;;5048608;28;20199;-84
2022/02/16 08:15:11;;;;;;;0.85;0.70;;;;;;;;;;5053223;28;20230;-83
2022/02/16 08:17:38;;;;;;;1.00;0.80;;;;;;;;;;5038913;28;20206;-82
2022/02/16 08:20:06;;;;;;;1.00;0.63;;;;;;;;;;5047890;28;20200;-83
2022/02/16 08:22:34;;;;;;;0.80;0.60;;;;;;;;;;5042832;28;20730;-83
2022/02/16 08:25:01;;;;;;;0.90;0.70;;;;;;;;;;5047042;28;20569;-83
2022/02/16 08:27:28;;;;;;;0.80;0.70;;;;;;;;;;5048001;28;20590;-83
2022/02/16 08:29:55;;;;;;;1.00;0.70;;;;;;;;;;5037299;28;20235;-82
2022/02/16 08:32:23;;;;;;;1.65;0.80;;;;;;;;;;5049360;28;20199;-82
2022/02/16 08:34:50;;;;;;;1.23;1.05;;;;;;;;;;5049151;28;20609;-83
2022/02/16 08:37:17;;;;;;;0.93;0.75;;;;;;;;;;5030749;28;20210;-82
2022/02/16 08:39:45;;;;;;;0.80;0.60;;;;;;;;;;5047206;28;20222;-82
2022/02/16 08:42:12;;;;;;;0.93;0.70;;;;;;;;;;5042156;28;20205;-83
2022/02/16 08:44:40;;;;;;;1.08;0.60;;;;;;;;;;5034895;28;20219;-82
2022/02/16 08:47:07;;;;;;;1.58;0.90;;;;;;;;;;5043457;28;20206;-82
2022/02/16 08:49:34;;;;;;;0.93;0.77;;;;;;;;;;5042513;28;20203;-83
2022/02/16 08:52:02;;;;;;;3.78;0.60;;;;;;;;;;5048498;28;20333;-85
2022/02/16 08:54:29;;;;;;;0.80;0.60;;;;;;;;;;5043597;28;20751;-84
2022/02/16 08:56:57;;;;;;;0.80;0.60;;;;;;;;;;5050467;28;20194;-83
2022/02/16 08:59:25;;;;;;;1.00;0.70;;;;;;;;;;5044510;28;20203;-83
2022/02/16 09:01:52;;;;;;;2.38;0.80;;;;;;;;;;5037408;28;20207;-82
2022/02/16 09:04:19;;;;;;;1.48;0.80;;;;;;;;;;5032600;28;20573;-81
2022/02/16 09:07:27;;;;;;;1.00;0.80;;;;;;;;;;5047553;28;20685;-82
2022/02/16 09:09:37;;;;;;;0.90;0.70;;;;;;;;;;5029912;28;20210;-82
2022/02/16 09:12:06;;;;;;;1.20;0.80;;;;;;;;;;5031835;28;20649;-82
2022/02/16 09:14:33;;;;;;;0.85;0.70;;;;;;;;;;5046806;28;20442;-82
2022/02/16 09:17:00;;;;;;;0.90;0.70;;;;;;;;;;5050513;28;20207;-82
2022/02/16 09:19:27;;;;;;;0.90;0.70;;;;;;;;;;5043983;28;20199;-82
2022/02/16 09:21:54;;;;;;;1.35;0.70;;;;;;;;;;5047337;28;20551;-83
2022/02/16 09:24:22;;;;;;;0.80;0.60;;;;;;;;;;5041445;28;20651;-84
2022/02/16 09:26:50;;;;;;;0.90;0.63;;;;;;;;;;5044629;28;20248;-82
2022/02/16 09:29:19;;;;;;;0.90;0.70;;;;;;;;;;5047568;28;20199;-83
2022/02/16 09:31:46;;;;;;;1.13;0.68;;;;;;;;;;5037304;28;20214;-82
2022/02/16 09:34:13;;;;;;;0.88;0.70;;;;;;;;;;5033476;28;21128;-82
2022/02/16 09:36:40;;;;;;;0.80;0.63;;;;;;;;;;5036196;28;20209;-81
2022/02/16 09:39:07;;;;;;;1.00;0.70;;;;;;;;;;5043117;28;20191;-82
2022/02/16 09:41:34;;;;;;;1.00;0.75;;;;;;;;;;5042979;28;20213;-81
2022/02/16 09:44:01;;;;;;;1.52;0.70;;;;;;;;;;5040650;28;20195;-85
2022/02/16 09:46:30;;;;;;;0.80;0.68;;;;;;;;;;5043777;28;20231;-83
2022/02/16 09:48:57;;;;;;;1.35;0.80;;;;;;;;;;5047796;28;20207;-82
2022/02/16 09:51:24;;;;;;;1.02;0.82;;;;;;;;;;5044381;28;20194;-83
2022/02/16 09:53:51;;;;;;;1.05;0.73;;;;;;;;;;5051204;28;20280;-82
2022/02/16 09:56:18;;;;;;;1.42;0.88;;;;;;;;;;5039535;28;20206;-82
2022/02/16 09:58:46;;;;;;;1.10;0.90;;;;;;;;;;5048142;28;20202;-83
2022/02/16 10:01:15;;;;;;;0.90;0.75;;;;;;;;;;5041936;28;20659;-83
2022/02/16 10:03:59;;;;;;;0.88;0.80;;;;;;;;;;5052523;28;20676;-83
2022/02/16 10:06:36;;;;;;;0.90;0.80;;;;;;;;;;5043250;28;20227;-82
2022/02/16 10:09:04;;;;;;;1.10;0.90;;;;;;;;;;5045985;28;20194;-83
2022/02/16 10:11:31;;;;;;;1.10;0.90;;;;;;;;;;5042486;28;20207;-82
2022/02/16 10:14:13;;;;;;;0.90;0.80;;;;;;;;;;5038298;28;20195;-84
2022/02/16 10:16:40;;;;;;;1.08;0.90;;;;;;;;;;5031026;28;20200;-83
2022/02/16 10:19:08;;;;;;;3.53;1.02;;;;;;;;;;5045843;28;20206;-82
2022/02/16 10:21:35;;;;;;;1.00;0.90;;;;;;;;;;5048027;28;20210;-82
2022/02/16 10:24:03;;;;;;;0.90;0.80;;;;;;;;;;5031384;28;20752;-83
2022/02/16 10:26:48;;;;;;;0.90;0.80;;;;;;;;;;5032880;28;20242;-83
2022/02/16 10:29:19;;;;;;;0.90;0.80;;;;;;;;;;5033697;28;20683;-82
2022/02/16 10:31:46;;;;;;;1.30;1.10;;;;;;;;;;5031899;28;20282;-83
2022/02/16 10:34:15;;;;;;;1.25;0.98;;;;;;;;;;5043028;28;20206;-83
2022/02/16 10:36:42;;;;;;;1.20;0.80;;;;;;;;;;5045025;28;20202;-82
2022/02/16 10:39:11;;;;;;;1.08;0.80;;;;;;;;;;5043424;28;20203;-83
2022/02/16 10:41:42;;;;;;;1.20;1.10;;;;;;;;;;5041399;28;20285;-82
2022/02/16 10:44:16;;;;;;;1.05;0.90;;;;;;;;;;5039133;28;20197;-82
2022/02/16 10:46:43;;;;;;;0.80;0.70;;;;;;;;;;5032715;28;20231;-84
2022/02/16 10:49:11;;;;;;;1.20;0.98;;;;;;;;;;5034006;28;20551;-83
2022/02/16 10:51:40;;;;;;;1.00;0.90;;;;;;;;;;5036587;28;20217;-84
2022/02/16 10:54:11;;;;;;;1.00;0.90;;;;;;;;;;5046220;28;20567;-82
2022/02/16 10:56:38;;;;;;;1.02;0.82;;;;;;;;;;5033233;28;20205;-83
2022/02/16 10:59:05;;;;;;;1.38;0.90;;;;;;;;;;5033662;28;20195;-83
2022/02/16 11:01:33;;;;;;;1.35;0.90;;;;;;;;;;5034193;28;20210;-82
2022/02/16 11:04:02;;;;;;;1.17;0.95;;;;;;;;;;5039374;28;20200;-82
2022/02/16 11:06:29;;;;;;;0.90;0.73;;;;;;;;;;5043474;28;20219;-79
2022/02/16 11:08:58;;;;;;;1.92;0.80;;;;;;;;;;5049558;28;20199;-81
2022/02/16 11:11:27;;;;;;;1.17;0.85;;;;;;;;;;5034960;28;20208;-83
2022/02/16 11:13:55;;;;;;;1.48;1.00;;;;;;;;;;5026334;28;20673;-83
2022/02/16 11:16:22;;;;;;;1.65;1.13;;;;;;;;;;5029643;28;20235;-82
2022/02/16 11:18:50;;;;;;;1.52;0.85;;;;;;;;;;5029157;28;20666;-84
2022/02/16 11:21:18;;;;;;;1.05;0.70;;;;;;;;;;5035928;28;20211;-81
2022/02/16 11:23:47;;;;;;;1.33;1.02;;;;;;;;;;5030734;28;20302;-82
2022/02/16 11:26:37;;;;;;;1.10;0.80;;;;;;;;;;5028869;28;20215;-82
2022/02/16 11:29:07;;;;;;;1.70;1.17;;;;;;;;;;5030766;28;20946;-82
2022/02/16 11:31:37;;;;;;;1.20;1.10;;;;;;;;;;5031364;28;20210;-82
2022/02/16 11:34:23;;;;;;;0.90;0.80;;;;;;;;;;5031977;28;20195;-82
2022/02/16 11:36:52;;;;;;;0.90;0.80;;;;;;;;;;5034893;28;20452;-82
2022/02/16 11:39:38;;;;;;;1.00;0.88;;;;;;;;;;5036640;28;20239;-81
2022/02/16 11:42:06;;;;;;;1.20;1.10;;;;;;;;;;5032909;28;20217;-81
2022/02/16 11:44:48;;;;;;;1.20;0.98;;;;;;;;;;5034276;28;20205;-82
2022/02/16 11:47:30;;;;;;;1.30;1.00;;;;;;;;;;5037846;28;20238;-83
2022/02/16 11:49:57;;;;;;;1.13;1.02;;;;;;;;;;5034441;28;20206;-83
2022/02/16 11:52:33;;;;;;;1.15;1.05;;;;;;;;;;5032192;28;20202;-82
2022/02/16 11:55:00;;;;;;;1.63;1.10;;;;;;;;;;5034786;28;20211;-83
2022/02/16 11:57:38;;;;;;;1.23;1.00;;;;;;;;;;5033512;28;20187;-82
2022/02/16 12:00:08;;;;;;;1.17;1.02;;;;;;;;;;5034324;28;20219;-82
2022/02/16 12:02:36;;;;;;;1.00;0.90;;;;;;;;;;5031048;28;20199;-82
2022/02/16 12:05:03;;;;;;;1.10;1.00;;;;;;;;;;5035930;28;20562;-82
2022/02/16 12:07:31;;;;;;;1.52;1.20;;;;;;;;;;5039329;28;20198;-82
2022/02/16 12:10:16;;;;;;;1.50;1.10;;;;;;;;;;5032265;28;20666;-83
2022/02/16 12:12:45;;;;;;;1.42;1.10;;;;;;;;;;5036897;28;20199;-82
2022/02/16 12:15:12;;;;;;;1.10;0.95;;;;;;;;;;5033617;28;20701;-81
2022/02/16 12:17:41;;;;;;;1.08;0.90;;;;;;;;;;5031549;28;20202;-81
2022/02/16 12:20:08;;;;;;;1.15;0.95;;;;;;;;;;5038996;28;20206;-82
2022/02/16 12:22:38;;;;;;;1.10;0.85;;;;;;;;;;5033528;28;20199;-82
2022/02/16 12:25:09;;;;;;;2.85;1.10;;;;;;;;;;5034687;28;20203;-82
2022/02/16 12:27:36;;;;;;;1.00;0.90;;;;;;;;;;5032079;28;20693;-84
2022/02/16 12:30:05;;;;;;;2.00;1.40;;;;;;;;;;5031713;28;20570;-82
2022/02/16 12:32:32;;;;;;;2.65;1.10;;;;;;;;;;5029401;28;20200;-82
2022/02/16 12:34:59;;;;;;;1.50;1.00;;;;;;;;;;5036287;28;20970;-82
2022/02/16 12:37:26;;;;;;;1.98;1.00;;;;;;;;;;5030670;28;20655;-83
2022/02/16 12:39:58;;;;;;;1.10;1.00;;;;;;;;;;5047608;28;20208;-82
2022/02/16 12:42:30;;;;;;;3.50;1.10;;;;;;;;;;5038329;28;20203;-81
2022/02/16 12:44:58;;;;;;;1.15;0.90;;;;;;;;;;5032544;28;20219;-83
2022/02/16 12:47:27;;;;;;;1.20;0.90;;;;;;;;;;5036743;28;20219;-82
2022/02/16 12:49:54;;;;;;;1.90;1.00;;;;;;;;;;5045184;28;20196;-82
2022/02/16 12:52:28;;;;;;;1.45;0.80;;;;;;;;;;5044710;28;20206;-82
2022/02/16 12:54:56;;;;;;;1.20;1.10;;;;;;;;;;5035654;28;20195;-81
2022/02/16 12:57:27;;;;;;;1.00;0.90;;;;;;;;;;5032433;28;20519;-81
2022/02/16 13:02:40;;;;;;;1.27;1.00;;;;;;;;;;5031118;28;20911;-82
2022/02/16 13:05:09;;;;;;;0.95;0.85;;;;;;;;;;5029443;28;20204;-82
2022/02/16 13:07:37;;;;;;;1.35;0.95;;;;;;;;;;5031381;28;20224;-82
2022/02/16 13:10:05;;;;;;;2.95;0.90;;;;;;;;;;5033828;28;20199;-83
2022/02/16 13:12:35;;;;;;;0.90;0.80;;;;;;;;;;5027674;28;20199;-82
2022/02/16 13:15:04;;;;;;;2.17;0.90;;;;;;;;;;5033169;28;20594;-83
2022/02/16 13:17:32;;;;;;;1.10;1.00;;;;;;;;;;5028488;28;20222;-82
2022/02/16 13:20:11;;;;;;;1.75;1.35;;;;;;;;;;5027762;28;20199;-82
2022/02/16 13:22:48;;;;;;;1.65;1.20;;;;;;;;;;5038119;28;20689;-82
2022/02/16 13:25:24;;;;;;;1.30;1.20;;;;;;;;;;5035183;28;20218;-83
2022/02/16 13:27:51;;;;;;;1.40;1.20;;;;;;;;;;5034262;28;20246;-83
2022/02/16 13:30:20;;;;;;;1.25;1.05;;;;;;;;;;5040519;28;20203;-83
2022/02/16 13:32:47;;;;;;;2.83;1.20;;;;;;;;;;5044472;28;20903;-82
2022/02/16 13:35:19;;;;;;;1.73;1.63;;;;;;;;;;5030660;28;20207;-83
2022/02/16 13:38:00;;;;;;;2.45;2.25;;;;;;;;;;5030853;28;20647;-84
2022/02/16 13:40:28;;;;;;;3.03;1.95;;;;;;;;;;5029638;28;20207;-83
2022/02/16 13:42:58;;;;;;;3.67;2.00;;;;;;;;;;5028111;28;20456;-82
2022/02/16 13:45:33;;;;;;;2.47;2.28;;;;;;;;;;5033940;28;20260;-83
2022/02/16 13:48:00;;;;;;;2.42;2.20;;;;;;;;;;5029431;28;20666;-82
2022/02/16 13:50:30;;;;;;;2.25;2.05;;;;;;;;;;5032112;28;20505;-82
2022/02/16 13:52:57;;;;;;;3.65;2.58;;;;;;;;;;5029527;28;20202;-82
2022/02/16 13:55:24;;;;;;;3.03;2.10;;;;;;;;;;5030778;28;20806;-82
2022/02/16 13:57:51;;;;;;;2.45;2.25;;;;;;;;;;5031930;28;20693;-83
2022/02/16 14:00:21;;;;;;;2.47;2.28;;;;;;;;;;5028517;28;20214;-82
2022/02/16 14:03:03;;;;;;;2.42;2.22;;;;;;;;;;5038181;28;20724;-82
2022/02/16 14:05:31;;;;;;;4.10;3.30;;;;;;;;;;5030233;28;20204;-83
2022/02/16 14:07:59;;;;;;;3.20;2.90;;;;;;;;;;5040447;28;20241;-82
2022/02/16 14:10:26;;;;;;;3.50;3.03;;;;;;;;;;5040280;28;20214;-82
2022/02/16 14:12:53;;;;;;;3.53;3.22;;;;;;;;;;5039864;28;20203;-82
2022/02/16 14:15:20;;;;;;;3.30;3.00;;;;;;;;;;5042003;28;20203;-82
2022/02/16 14:17:47;;;;;;;5.18;4.68;;;;;;;;;;5043211;28;20200;-83
2022/02/16 14:20:14;;;;;;;3.63;3.25;;;;;;;;;;5052578;28;20194;-82
2022/02/16 14:22:43;;;;;;;3.75;3.45;;;;;;;;;;5048622;28;20201;-83
2022/02/16 14:25:10;;;;;;;5.22;3.80;;;;;;;;;;5037060;28;20196;-82
2022/02/16 14:27:37;;;;;;;4.55;3.70;;;;;;;;;;5042274;28;20210;-82
2022/02/16 14:30:05;;;;;;;3.58;3.28;;;;;;;;;;5036519;28;20198;-82
2022/02/16 14:32:32;;;;;;;3.75;3.45;;;;;;;;;;5048121;28;20662;-82
2022/02/16 14:34:59;;;;;;;4.13;3.72;;;;;;;;;;5045979;28;20559;-82
2022/02/16 14:37:27;;;;;;;3.53;3.20;;;;;;;;;;5035823;28;20744;-83
2022/02/16 14:39:55;;;;;;;3.83;3.50;;;;;;;;;;5048035;28;20566;-82
2022/02/16 14:42:23;;;;;;;4.20;3.90;;;;;;;;;;5031579;28;20240;-82
2022/02/16 14:44:50;;;;;;;4.10;3.80;;;;;;;;;;5043794;28;20595;-82
2022/02/16 14:47:20;;;;;;;4.40;3.63;;;;;;;;;;5040833;28;20264;-82
2022/02/16 14:49:47;;;;;;;5.63;4.10;;;;;;;;;;5050209;28;20191;-82
2022/02/16 14:52:14;;;;;;;4.60;4.20;;;;;;;;;;5051175;28;20203;-82
2022/02/16 14:54:43;;;;;;;4.30;3.90;;;;;;;;;;5040952;28;20276;-82
2022/02/16 14:57:12;;;;;;;4.38;3.17;;;;;;;;;;5038173;28;20191;-82
2022/02/16 14:59:39;;;;;;;4.10;3.60;;;;;;;;;;5032190;28;20218;-82